sensor_id;sensor_type;location;lat;lon;timestamp;P1;durP1;ratioP1;P2;durP2;ratioP2
76373;SDS011;65197;50.164;8.012;2024-03-29T00:02:01;3.40;;;1.30;;
76373;SDS011;65197;50.164;8.012;2024-03-29T00:04:26;1.27;;;0.80;;
76373;SDS011;65197;50.164;8.012;2024-03-29T00:06:52;3.58;;;0.80;;
76373;SDS011;65197;50.164;8.012;2024-03-29T00:09:17;1.30;;;0.88;;
76373;SDS011;65197;50.164;8.012;2024-03-29T00:11:43;4.53;;;0.85;;
76373;SDS011;65197;50.164;8.012;2024-03-29T00:14:08;1.33;;;0.85;;
76373;SDS011;65197;50.164;8.012;2024-03-29T00:16:34;2.30;;;0.93;;
76373;SDS011;65197;50.164;8.012;2024-03-29T00:18:59;2.53;;;1.00;;
76373;SDS011;65197;50.164;8.012;2024-03-29T00:21:25;1.60;;;0.70;;
76373;SDS011;65197;50.164;8.012;2024-03-29T00:23:50;3.35;;;0.90;;
76373;SDS011;65197;50.164;8.012;2024-03-29T00:26:16;2.13;;;1.02;;
76373;SDS011;65197;50.164;8.012;2024-03-29T00:28:42;1.58;;;0.80;;
76373;SDS011;65197;50.164;8.012;2024-03-29T00:31:07;2.88;;;1.00;;
76373;SDS011;65197;50.164;8.012;2024-03-29T00:33:33;4.05;;;0.80;;
76373;SDS011;65197;50.164;8.012;2024-03-29T00:35:59;1.65;;;0.90;;
76373;SDS011;65197;50.164;8.012;2024-03-29T00:38:24;2.67;;;0.82;;
76373;SDS011;65197;50.164;8.012;2024-03-29T00:40:50;2.55;;;1.20;;
76373;SDS011;65197;50.164;8.012;2024-03-29T00:43:15;3.30;;;1.20;;
76373;SDS011;65197;50.164;8.012;2024-03-29T00:45:41;1.40;;;0.68;;
76373;SDS011;65197;50.164;8.012;2024-03-29T00:48:07;1.90;;;1.02;;
76373;SDS011;65197;50.164;8.012;2024-03-29T00:50:33;3.45;;;1.33;;
76373;SDS011;65197;50.164;8.012;2024-03-29T00:52:59;2.63;;;1.05;;
76373;SDS011;65197;50.164;8.012;2024-03-29T00:55:25;2.70;;;1.20;;
76373;SDS011;65197;50.164;8.012;2024-03-29T00:57:50;1.45;;;0.90;;
76373;SDS011;65197;50.164;8.012;2024-03-29T01:00:16;3.58;;;1.17;;
76373;SDS011;65197;50.164;8.012;2024-03-29T01:02:42;3.05;;;1.02;;
76373;SDS011;65197;50.164;8.012;2024-03-29T01:05:07;4.55;;;1.35;;
76373;SDS011;65197;50.164;8.012;2024-03-29T01:07:33;4.93;;;1.30;;
76373;SDS011;65197;50.164;8.012;2024-03-29T01:09:59;2.60;;;0.98;;
76373;SDS011;65197;50.164;8.012;2024-03-29T01:12:25;2.20;;;1.08;;
76373;SDS011;65197;50.164;8.012;2024-03-29T01:14:50;7.30;;;1.10;;
76373;SDS011;65197;50.164;8.012;2024-03-29T01:17:16;5.13;;;1.27;;
76373;SDS011;65197;50.164;8.012;2024-03-29T01:19:41;4.32;;;1.42;;
76373;SDS011;65197;50.164;8.012;2024-03-29T01:22:07;3.30;;;1.15;;
76373;SDS011;65197;50.164;8.012;2024-03-29T01:24:33;4.00;;;1.20;;
76373;SDS011;65197;50.164;8.012;2024-03-29T01:26:59;2.25;;;1.02;;
76373;SDS011;65197;50.164;8.012;2024-03-29T01:29:24;3.13;;;1.40;;
76373;SDS011;65197;50.164;8.012;2024-03-29T01:31:50;1.65;;;0.88;;
76373;SDS011;65197;50.164;8.012;2024-03-29T01:34:16;3.42;;;1.30;;
76373;SDS011;65197;50.164;8.012;2024-03-29T01:36:41;1.98;;;1.20;;
76373;SDS011;65197;50.164;8.012;2024-03-29T01:39:07;2.45;;;0.90;;
76373;SDS011;65197;50.164;8.012;2024-03-29T01:41:33;1.83;;;1.10;;
76373;SDS011;65197;50.164;8.012;2024-03-29T01:43:59;2.42;;;1.05;;
76373;SDS011;65197;50.164;8.012;2024-03-29T01:46:25;2.85;;;1.13;;
76373;SDS011;65197;50.164;8.012;2024-03-29T01:48:51;1.95;;;1.20;;
76373;SDS011;65197;50.164;8.012;2024-03-29T01:51:18;1.63;;;1.00;;
76373;SDS011;65197;50.164;8.012;2024-03-29T01:53:47;5.90;;;1.30;;
76373;SDS011;65197;50.164;8.012;2024-03-29T01:56:13;4.57;;;1.20;;
76373;SDS011;65197;50.164;8.012;2024-03-29T01:58:41;1.58;;;1.08;;
76373;SDS011;65197;50.164;8.012;2024-03-29T02:01:07;3.25;;;0.90;;
76373;SDS011;65197;50.164;8.012;2024-03-29T02:03:33;2.13;;;1.02;;
76373;SDS011;65197;50.164;8.012;2024-03-29T02:05:59;3.63;;;1.35;;
76373;SDS011;65197;50.164;8.012;2024-03-29T02:08:26;2.50;;;1.10;;
76373;SDS011;65197;50.164;8.012;2024-03-29T02:10:53;4.20;;;1.60;;
76373;SDS011;65197;50.164;8.012;2024-03-29T02:13:19;1.35;;;1.10;;
76373;SDS011;65197;50.164;8.012;2024-03-29T02:15:45;1.35;;;1.00;;
76373;SDS011;65197;50.164;8.012;2024-03-29T02:18:10;1.80;;;1.10;;
76373;SDS011;65197;50.164;8.012;2024-03-29T02:20:36;3.97;;;1.33;;
76373;SDS011;65197;50.164;8.012;2024-03-29T02:23:06;3.65;;;1.50;;
76373;SDS011;65197;50.164;8.012;2024-03-29T02:25:34;4.40;;;1.30;;
76373;SDS011;65197;50.164;8.012;2024-03-29T02:28:01;2.45;;;1.15;;
76373;SDS011;65197;50.164;8.012;2024-03-29T02:30:28;2.20;;;1.25;;
76373;SDS011;65197;50.164;8.012;2024-03-29T02:32:55;3.42;;;1.48;;
76373;SDS011;65197;50.164;8.012;2024-03-29T02:35:24;2.92;;;1.27;;
76373;SDS011;65197;50.164;8.012;2024-03-29T02:37:50;3.20;;;1.50;;
76373;SDS011;65197;50.164;8.012;2024-03-29T02:40:16;3.60;;;1.60;;
76373;SDS011;65197;50.164;8.012;2024-03-29T02:42:42;3.63;;;1.35;;
76373;SDS011;65197;50.164;8.012;2024-03-29T02:45:07;3.92;;;1.38;;
76373;SDS011;65197;50.164;8.012;2024-03-29T02:47:33;3.08;;;1.70;;
76373;SDS011;65197;50.164;8.012;2024-03-29T02:49:59;4.18;;;1.50;;
76373;SDS011;65197;50.164;8.012;2024-03-29T02:52:24;2.90;;;1.10;;
76373;SDS011;65197;50.164;8.012;2024-03-29T02:54:50;2.42;;;1.20;;
76373;SDS011;65197;50.164;8.012;2024-03-29T02:57:15;2.03;;;1.30;;
76373;SDS011;65197;50.164;8.012;2024-03-29T02:59:41;3.20;;;1.40;;
76373;SDS011;65197;50.164;8.012;2024-03-29T03:02:07;4.13;;;1.65;;
76373;SDS011;65197;50.164;8.012;2024-03-29T03:04:33;4.50;;;1.40;;
76373;SDS011;65197;50.164;8.012;2024-03-29T03:06:59;2.63;;;1.48;;
76373;SDS011;65197;50.164;8.012;2024-03-29T03:09:44;1.92;;;1.20;;
76373;SDS011;65197;50.164;8.012;2024-03-29T03:12:31;3.28;;;1.30;;
76373;SDS011;65197;50.164;8.012;2024-03-29T03:14:59;1.95;;;1.10;;
76373;SDS011;65197;50.164;8.012;2024-03-29T03:17:28;4.80;;;1.63;;
76373;SDS011;65197;50.164;8.012;2024-03-29T03:19:54;1.90;;;1.10;;
76373;SDS011;65197;50.164;8.012;2024-03-29T03:22:19;4.15;;;1.13;;
76373;SDS011;65197;50.164;8.012;2024-03-29T03:24:45;2.75;;;1.27;;
76373;SDS011;65197;50.164;8.012;2024-03-29T03:27:10;2.28;;;1.00;;
76373;SDS011;65197;50.164;8.012;2024-03-29T03:29:36;2.78;;;1.40;;
76373;SDS011;65197;50.164;8.012;2024-03-29T03:32:02;1.27;;;0.98;;
76373;SDS011;65197;50.164;8.012;2024-03-29T03:34:27;2.35;;;1.13;;
76373;SDS011;65197;50.164;8.012;2024-03-29T03:36:53;3.63;;;1.27;;
76373;SDS011;65197;50.164;8.012;2024-03-29T03:39:18;2.55;;;1.23;;
76373;SDS011;65197;50.164;8.012;2024-03-29T03:41:44;1.23;;;1.02;;
76373;SDS011;65197;50.164;8.012;2024-03-29T03:44:10;2.53;;;1.20;;
76373;SDS011;65197;50.164;8.012;2024-03-29T03:46:35;2.20;;;1.30;;
76373;SDS011;65197;50.164;8.012;2024-03-29T03:49:00;3.33;;;1.55;;
76373;SDS011;65197;50.164;8.012;2024-03-29T03:51:26;2.15;;;1.20;;
76373;SDS011;65197;50.164;8.012;2024-03-29T03:53:52;3.38;;;1.50;;
76373;SDS011;65197;50.164;8.012;2024-03-29T03:56:17;1.58;;;1.00;;
76373;SDS011;65197;50.164;8.012;2024-03-29T03:58:45;3.47;;;1.20;;
76373;SDS011;65197;50.164;8.012;2024-03-29T04:01:11;3.30;;;1.33;;
76373;SDS011;65197;50.164;8.012;2024-03-29T04:03:37;1.13;;;0.82;;
76373;SDS011;65197;50.164;8.012;2024-03-29T04:06:04;2.47;;;1.40;;
76373;SDS011;65197;50.164;8.012;2024-03-29T04:08:30;3.35;;;1.23;;
76373;SDS011;65197;50.164;8.012;2024-03-29T04:10:56;3.90;;;1.20;;
76373;SDS011;65197;50.164;8.012;2024-03-29T04:13:22;1.55;;;1.17;;
76373;SDS011;65197;50.164;8.012;2024-03-29T04:15:47;2.00;;;1.13;;
76373;SDS011;65197;50.164;8.012;2024-03-29T04:18:13;2.45;;;1.08;;
76373;SDS011;65197;50.164;8.012;2024-03-29T04:20:39;1.73;;;1.20;;
76373;SDS011;65197;50.164;8.012;2024-03-29T04:23:05;2.35;;;1.30;;
76373;SDS011;65197;50.164;8.012;2024-03-29T04:25:31;1.90;;;1.10;;
76373;SDS011;65197;50.164;8.012;2024-03-29T04:27:56;3.15;;;1.33;;
76373;SDS011;65197;50.164;8.012;2024-03-29T04:30:22;2.22;;;1.10;;
76373;SDS011;65197;50.164;8.012;2024-03-29T04:32:47;3.83;;;1.75;;
76373;SDS011;65197;50.164;8.012;2024-03-29T04:35:13;2.70;;;1.30;;
76373;SDS011;65197;50.164;8.012;2024-03-29T04:37:38;2.45;;;1.17;;
76373;SDS011;65197;50.164;8.012;2024-03-29T04:40:04;2.22;;;1.17;;
76373;SDS011;65197;50.164;8.012;2024-03-29T04:42:31;5.35;;;1.85;;
76373;SDS011;65197;50.164;8.012;2024-03-29T04:44:56;2.10;;;1.13;;
76373;SDS011;65197;50.164;8.012;2024-03-29T04:47:22;2.20;;;1.13;;
76373;SDS011;65197;50.164;8.012;2024-03-29T04:49:47;2.40;;;1.10;;
76373;SDS011;65197;50.164;8.012;2024-03-29T04:52:13;1.67;;;1.05;;
76373;SDS011;65197;50.164;8.012;2024-03-29T04:54:38;3.72;;;1.40;;
76373;SDS011;65197;50.164;8.012;2024-03-29T04:57:04;1.42;;;1.00;;
76373;SDS011;65197;50.164;8.012;2024-03-29T04:59:31;3.03;;;1.30;;
76373;SDS011;65197;50.164;8.012;2024-03-29T05:02:01;1.27;;;1.00;;
76373;SDS011;65197;50.164;8.012;2024-03-29T05:06:56;2.25;;;1.30;;
76373;SDS011;65197;50.164;8.012;2024-03-29T05:09:23;1.67;;;1.20;;
76373;SDS011;65197;50.164;8.012;2024-03-29T05:11:49;2.92;;;1.50;;
76373;SDS011;65197;50.164;8.012;2024-03-29T05:14:16;3.78;;;1.50;;
76373;SDS011;65197;50.164;8.012;2024-03-29T05:16:43;2.17;;;1.33;;
76373;SDS011;65197;50.164;8.012;2024-03-29T05:19:10;3.03;;;1.27;;
76373;SDS011;65197;50.164;8.012;2024-03-29T05:21:36;3.47;;;1.58;;
76373;SDS011;65197;50.164;8.012;2024-03-29T05:24:01;2.33;;;1.45;;
76373;SDS011;65197;50.164;8.012;2024-03-29T05:26:27;2.10;;;1.30;;
76373;SDS011;65197;50.164;8.012;2024-03-29T05:28:54;4.07;;;1.52;;
76373;SDS011;65197;50.164;8.012;2024-03-29T05:31:22;3.63;;;1.48;;
76373;SDS011;65197;50.164;8.012;2024-03-29T05:33:48;2.55;;;1.40;;
76373;SDS011;65197;50.164;8.012;2024-03-29T05:36:14;2.00;;;1.27;;
76373;SDS011;65197;50.164;8.012;2024-03-29T05:38:39;3.42;;;1.70;;
76373;SDS011;65197;50.164;8.012;2024-03-29T05:41:05;3.67;;;1.30;;
76373;SDS011;65197;50.164;8.012;2024-03-29T05:43:31;3.00;;;1.45;;
76373;SDS011;65197;50.164;8.012;2024-03-29T05:45:56;4.55;;;1.50;;
76373;SDS011;65197;50.164;8.012;2024-03-29T05:48:22;2.08;;;1.33;;
76373;SDS011;65197;50.164;8.012;2024-03-29T05:50:48;2.30;;;1.25;;
76373;SDS011;65197;50.164;8.012;2024-03-29T05:53:14;2.75;;;1.40;;
76373;SDS011;65197;50.164;8.012;2024-03-29T05:55:40;2.83;;;1.35;;
76373;SDS011;65197;50.164;8.012;2024-03-29T05:58:05;2.92;;;1.23;;
76373;SDS011;65197;50.164;8.012;2024-03-29T06:00:32;3.22;;;1.40;;
76373;SDS011;65197;50.164;8.012;2024-03-29T06:02:59;3.53;;;1.52;;
76373;SDS011;65197;50.164;8.012;2024-03-29T06:05:27;2.10;;;1.50;;
76373;SDS011;65197;50.164;8.012;2024-03-29T06:07:53;4.22;;;1.65;;
76373;SDS011;65197;50.164;8.012;2024-03-29T06:10:19;6.43;;;1.40;;
76373;SDS011;65197;50.164;8.012;2024-03-29T06:12:44;2.20;;;1.30;;
76373;SDS011;65197;50.164;8.012;2024-03-29T06:15:10;3.10;;;1.50;;
76373;SDS011;65197;50.164;8.012;2024-03-29T06:17:54;1.90;;;1.30;;
76373;SDS011;65197;50.164;8.012;2024-03-29T06:20:19;3.72;;;1.83;;
76373;SDS011;65197;50.164;8.012;2024-03-29T06:22:45;3.05;;;1.35;;
76373;SDS011;65197;50.164;8.012;2024-03-29T06:25:10;3.45;;;1.70;;
76373;SDS011;65197;50.164;8.012;2024-03-29T06:27:37;3.42;;;1.63;;
76373;SDS011;65197;50.164;8.012;2024-03-29T06:30:03;3.33;;;1.50;;
76373;SDS011;65197;50.164;8.012;2024-03-29T06:32:30;2.28;;;1.50;;
76373;SDS011;65197;50.164;8.012;2024-03-29T06:34:56;2.92;;;1.60;;
76373;SDS011;65197;50.164;8.012;2024-03-29T06:37:22;3.78;;;1.50;;
76373;SDS011;65197;50.164;8.012;2024-03-29T06:39:50;3.60;;;1.77;;
76373;SDS011;65197;50.164;8.012;2024-03-29T06:42:15;2.05;;;1.50;;
76373;SDS011;65197;50.164;8.012;2024-03-29T06:44:41;4.97;;;2.67;;
76373;SDS011;65197;50.164;8.012;2024-03-29T06:47:07;2.70;;;1.52;;
76373;SDS011;65197;50.164;8.012;2024-03-29T06:49:33;2.95;;;1.77;;
76373;SDS011;65197;50.164;8.012;2024-03-29T06:51:59;3.78;;;2.17;;
76373;SDS011;65197;50.164;8.012;2024-03-29T06:54:26;3.63;;;1.80;;
76373;SDS011;65197;50.164;8.012;2024-03-29T06:56:55;3.90;;;2.30;;
76373;SDS011;65197;50.164;8.012;2024-03-29T06:59:21;3.10;;;2.22;;
76373;SDS011;65197;50.164;8.012;2024-03-29T07:01:48;3.75;;;1.98;;
76373;SDS011;65197;50.164;8.012;2024-03-29T07:04:17;4.45;;;2.50;;
76373;SDS011;65197;50.164;8.012;2024-03-29T07:06:44;4.03;;;2.40;;
76373;SDS011;65197;50.164;8.012;2024-03-29T07:09:12;3.85;;;2.40;;
76373;SDS011;65197;50.164;8.012;2024-03-29T07:11:39;4.22;;;2.45;;
76373;SDS011;65197;50.164;8.012;2024-03-29T07:14:04;4.55;;;2.10;;
76373;SDS011;65197;50.164;8.012;2024-03-29T07:16:30;3.88;;;2.20;;
76373;SDS011;65197;50.164;8.012;2024-03-29T07:18:56;4.93;;;2.30;;
76373;SDS011;65197;50.164;8.012;2024-03-29T07:21:21;3.95;;;2.03;;
76373;SDS011;65197;50.164;8.012;2024-03-29T07:23:46;3.22;;;2.00;;
76373;SDS011;65197;50.164;8.012;2024-03-29T07:26:12;3.65;;;2.10;;
76373;SDS011;65197;50.164;8.012;2024-03-29T07:28:38;5.25;;;2.20;;
76373;SDS011;65197;50.164;8.012;2024-03-29T07:31:07;3.25;;;1.80;;
76373;SDS011;65197;50.164;8.012;2024-03-29T07:33:33;5.30;;;2.20;;
76373;SDS011;65197;50.164;8.012;2024-03-29T07:35:59;4.25;;;2.08;;
76373;SDS011;65197;50.164;8.012;2024-03-29T07:38:25;3.92;;;2.00;;
76373;SDS011;65197;50.164;8.012;2024-03-29T07:40:51;4.75;;;2.10;;
76373;SDS011;65197;50.164;8.012;2024-03-29T07:43:17;4.72;;;2.05;;
76373;SDS011;65197;50.164;8.012;2024-03-29T07:45:43;2.65;;;1.83;;
76373;SDS011;65197;50.164;8.012;2024-03-29T07:48:11;5.60;;;2.17;;
76373;SDS011;65197;50.164;8.012;2024-03-29T07:50:38;2.85;;;1.92;;
76373;SDS011;65197;50.164;8.012;2024-03-29T07:53:04;4.35;;;2.10;;
76373;SDS011;65197;50.164;8.012;2024-03-29T07:55:30;5.60;;;2.15;;
76373;SDS011;65197;50.164;8.012;2024-03-29T07:57:55;2.20;;;1.55;;
76373;SDS011;65197;50.164;8.012;2024-03-29T08:00:21;3.70;;;1.63;;
76373;SDS011;65197;50.164;8.012;2024-03-29T08:02:47;4.72;;;1.52;;
76373;SDS011;65197;50.164;8.012;2024-03-29T08:05:13;2.08;;;1.38;;
76373;SDS011;65197;50.164;8.012;2024-03-29T08:07:38;2.72;;;1.60;;
76373;SDS011;65197;50.164;8.012;2024-03-29T08:10:04;3.17;;;1.50;;
76373;SDS011;65197;50.164;8.012;2024-03-29T08:12:31;2.42;;;1.60;;
76373;SDS011;65197;50.164;8.012;2024-03-29T08:14:57;3.13;;;1.42;;
76373;SDS011;65197;50.164;8.012;2024-03-29T08:17:23;2.55;;;1.38;;
76373;SDS011;65197;50.164;8.012;2024-03-29T08:19:50;3.30;;;1.30;;
76373;SDS011;65197;50.164;8.012;2024-03-29T08:22:15;2.80;;;1.33;;
76373;SDS011;65197;50.164;8.012;2024-03-29T08:24:41;1.75;;;1.30;;
76373;SDS011;65197;50.164;8.012;2024-03-29T08:27:06;3.90;;;1.65;;
76373;SDS011;65197;50.164;8.012;2024-03-29T08:29:32;1.83;;;1.13;;
76373;SDS011;65197;50.164;8.012;2024-03-29T08:31:57;1.90;;;1.20;;
76373;SDS011;65197;50.164;8.012;2024-03-29T08:34:23;2.70;;;1.73;;
76373;SDS011;65197;50.164;8.012;2024-03-29T08:36:49;2.67;;;2.03;;
76373;SDS011;65197;50.164;8.012;2024-03-29T08:39:15;2.47;;;1.30;;
76373;SDS011;65197;50.164;8.012;2024-03-29T08:41:41;2.63;;;1.27;;
76373;SDS011;65197;50.164;8.012;2024-03-29T08:44:07;1.75;;;1.15;;
76373;SDS011;65197;50.164;8.012;2024-03-29T08:46:32;4.03;;;1.60;;
76373;SDS011;65197;50.164;8.012;2024-03-29T08:48:58;1.98;;;1.17;;
76373;SDS011;65197;50.164;8.012;2024-03-29T08:51:23;2.47;;;1.50;;
76373;SDS011;65197;50.164;8.012;2024-03-29T08:53:49;2.75;;;1.20;;
76373;SDS011;65197;50.164;8.012;2024-03-29T08:56:16;2.47;;;1.25;;
76373;SDS011;65197;50.164;8.012;2024-03-29T08:58:41;4.10;;;1.30;;
76373;SDS011;65197;50.164;8.012;2024-03-29T09:01:07;2.63;;;1.10;;
76373;SDS011;65197;50.164;8.012;2024-03-29T09:03:33;3.40;;;1.60;;
76373;SDS011;65197;50.164;8.012;2024-03-29T09:05:59;1.73;;;1.20;;
76373;SDS011;65197;50.164;8.012;2024-03-29T09:08:24;3.63;;;1.58;;
76373;SDS011;65197;50.164;8.012;2024-03-29T09:10:50;2.70;;;1.17;;
76373;SDS011;65197;50.164;8.012;2024-03-29T09:13:15;1.88;;;1.30;;
76373;SDS011;65197;50.164;8.012;2024-03-29T09:15:41;3.30;;;1.45;;
76373;SDS011;65197;50.164;8.012;2024-03-29T09:18:07;2.50;;;1.42;;
76373;SDS011;65197;50.164;8.012;2024-03-29T09:20:42;2.53;;;1.40;;
76373;SDS011;65197;50.164;8.012;2024-03-29T09:23:09;2.28;;;1.20;;
76373;SDS011;65197;50.164;8.012;2024-03-29T09:25:39;3.95;;;2.00;;
76373;SDS011;65197;50.164;8.012;2024-03-29T09:28:05;2.10;;;1.15;;
76373;SDS011;65197;50.164;8.012;2024-03-29T09:30:31;3.28;;;1.23;;
76373;SDS011;65197;50.164;8.012;2024-03-29T09:32:57;2.53;;;1.27;;
76373;SDS011;65197;50.164;8.012;2024-03-29T09:35:22;3.13;;;1.27;;
76373;SDS011;65197;50.164;8.012;2024-03-29T09:37:48;4.45;;;1.45;;
76373;SDS011;65197;50.164;8.012;2024-03-29T09:40:13;2.33;;;1.20;;
76373;SDS011;65197;50.164;8.012;2024-03-29T09:42:39;2.30;;;1.38;;
76373;SDS011;65197;50.164;8.012;2024-03-29T09:45:05;3.10;;;1.40;;
76373;SDS011;65197;50.164;8.012;2024-03-29T09:47:32;2.10;;;1.33;;
76373;SDS011;65197;50.164;8.012;2024-03-29T09:50:02;2.92;;;1.33;;
76373;SDS011;65197;50.164;8.012;2024-03-29T09:52:31;3.53;;;1.40;;
76373;SDS011;65197;50.164;8.012;2024-03-29T09:54:58;2.50;;;1.35;;
76373;SDS011;65197;50.164;8.012;2024-03-29T09:57:25;2.00;;;1.40;;
76373;SDS011;65197;50.164;8.012;2024-03-29T09:59:54;1.88;;;1.35;;
76373;SDS011;65197;50.164;8.012;2024-03-29T10:02:20;2.05;;;1.45;;
76373;SDS011;65197;50.164;8.012;2024-03-29T10:04:48;2.17;;;1.30;;
76373;SDS011;65197;50.164;8.012;2024-03-29T10:07:18;3.13;;;1.40;;
76373;SDS011;65197;50.164;8.012;2024-03-29T10:09:44;3.28;;;1.60;;
76373;SDS011;65197;50.164;8.012;2024-03-29T10:12:10;3.10;;;1.55;;
76373;SDS011;65197;50.164;8.012;2024-03-29T10:14:45;2.80;;;1.58;;
76373;SDS011;65197;50.164;8.012;2024-03-29T10:17:18;3.33;;;1.60;;
76373;SDS011;65197;50.164;8.012;2024-03-29T10:19:44;2.88;;;1.40;;
76373;SDS011;65197;50.164;8.012;2024-03-29T10:22:10;4.35;;;1.63;;
76373;SDS011;65197;50.164;8.012;2024-03-29T10:24:36;2.80;;;1.70;;
76373;SDS011;65197;50.164;8.012;2024-03-29T10:27:02;2.40;;;1.50;;
76373;SDS011;65197;50.164;8.012;2024-03-29T10:29:28;5.55;;;1.83;;
76373;SDS011;65197;50.164;8.012;2024-03-29T10:31:56;5.10;;;2.20;;
76373;SDS011;65197;50.164;8.012;2024-03-29T10:34:22;3.55;;;1.60;;
76373;SDS011;65197;50.164;8.012;2024-03-29T10:36:50;2.15;;;1.40;;
76373;SDS011;65197;50.164;8.012;2024-03-29T10:39:16;3.72;;;1.75;;
76373;SDS011;65197;50.164;8.012;2024-03-29T10:41:43;2.35;;;1.63;;
76373;SDS011;65197;50.164;8.012;2024-03-29T10:44:12;2.65;;;1.50;;
76373;SDS011;65197;50.164;8.012;2024-03-29T10:46:40;3.53;;;1.63;;
76373;SDS011;65197;50.164;8.012;2024-03-29T10:49:07;4.03;;;1.80;;
76373;SDS011;65197;50.164;8.012;2024-03-29T10:51:40;4.70;;;2.28;;
76373;SDS011;65197;50.164;8.012;2024-03-29T10:54:09;3.47;;;2.10;;
76373;SDS011;65197;50.164;8.012;2024-03-29T10:56:36;2.92;;;2.00;;
76373;SDS011;65197;50.164;8.012;2024-03-29T10:59:06;3.97;;;2.38;;
76373;SDS011;65197;50.164;8.012;2024-03-29T11:01:57;3.67;;;2.28;;
76373;SDS011;65197;50.164;8.012;2024-03-29T11:04:29;4.60;;;2.45;;
76373;SDS011;65197;50.164;8.012;2024-03-29T11:06:59;3.63;;;2.47;;
76373;SDS011;65197;50.164;8.012;2024-03-29T11:09:31;3.08;;;1.98;;
76373;SDS011;65197;50.164;8.012;2024-03-29T11:11:58;4.10;;;2.10;;
76373;SDS011;65197;50.164;8.012;2024-03-29T11:14:31;5.57;;;2.30;;
76373;SDS011;65197;50.164;8.012;2024-03-29T11:17:02;4.15;;;2.58;;
76373;SDS011;65197;50.164;8.012;2024-03-29T11:19:28;3.05;;;2.65;;
76373;SDS011;65197;50.164;8.012;2024-03-29T11:21:54;4.25;;;2.75;;
76373;SDS011;65197;50.164;8.012;2024-03-29T11:24:22;3.97;;;2.60;;
76373;SDS011;65197;50.164;8.012;2024-03-29T11:26:47;3.35;;;2.53;;
76373;SDS011;65197;50.164;8.012;2024-03-29T11:29:19;4.70;;;3.25;;
76373;SDS011;65197;50.164;8.012;2024-03-29T11:31:58;4.68;;;3.60;;
76373;SDS011;65197;50.164;8.012;2024-03-29T11:34:24;7.18;;;3.63;;
76373;SDS011;65197;50.164;8.012;2024-03-29T11:36:50;8.88;;;4.93;;
76373;SDS011;65197;50.164;8.012;2024-03-29T11:39:22;6.05;;;3.80;;
76373;SDS011;65197;50.164;8.012;2024-03-29T11:41:48;15.38;;;9.48;;
76373;SDS011;65197;50.164;8.012;2024-03-29T11:44:14;8.85;;;5.28;;
76373;SDS011;65197;50.164;8.012;2024-03-29T11:46:41;8.18;;;5.20;;
76373;SDS011;65197;50.164;8.012;2024-03-29T11:49:08;6.82;;;4.70;;
76373;SDS011;65197;50.164;8.012;2024-03-29T11:51:34;7.45;;;4.90;;
76373;SDS011;65197;50.164;8.012;2024-03-29T11:54:00;12.30;;;7.65;;
76373;SDS011;65197;50.164;8.012;2024-03-29T11:56:25;7.68;;;4.88;;
76373;SDS011;65197;50.164;8.012;2024-03-29T11:58:51;6.68;;;4.85;;
76373;SDS011;65197;50.164;8.012;2024-03-29T12:01:18;6.75;;;5.13;;
76373;SDS011;65197;50.164;8.012;2024-03-29T12:03:43;7.35;;;5.40;;
76373;SDS011;65197;50.164;8.012;2024-03-29T12:06:09;8.98;;;6.18;;
76373;SDS011;65197;50.164;8.012;2024-03-29T12:08:37;11.82;;;6.30;;
76373;SDS011;65197;50.164;8.012;2024-03-29T12:11:07;8.45;;;6.13;;
76373;SDS011;65197;50.164;8.012;2024-03-29T12:13:33;8.38;;;5.55;;
76373;SDS011;65197;50.164;8.012;2024-03-29T12:15:59;9.48;;;6.55;;
76373;SDS011;65197;50.164;8.012;2024-03-29T12:18:25;11.50;;;6.80;;
76373;SDS011;65197;50.164;8.012;2024-03-29T12:20:56;9.93;;;6.10;;
76373;SDS011;65197;50.164;8.012;2024-03-29T12:23:22;10.60;;;6.28;;
76373;SDS011;65197;50.164;8.012;2024-03-29T12:25:48;8.63;;;6.40;;
76373;SDS011;65197;50.164;8.012;2024-03-29T12:28:16;9.18;;;6.13;;
76373;SDS011;65197;50.164;8.012;2024-03-29T12:30:42;8.05;;;6.38;;
76373;SDS011;65197;50.164;8.012;2024-03-29T12:33:12;12.60;;;6.28;;
76373;SDS011;65197;50.164;8.012;2024-03-29T12:35:44;9.32;;;6.38;;
76373;SDS011;65197;50.164;8.012;2024-03-29T12:38:13;9.13;;;6.70;;
76373;SDS011;65197;50.164;8.012;2024-03-29T12:40:40;155.15;;;18.35;;
76373;SDS011;65197;50.164;8.012;2024-03-29T12:43:08;166.43;;;17.65;;
76373;SDS011;65197;50.164;8.012;2024-03-29T12:45:34;60.67;;;10.07;;
76373;SDS011;65197;50.164;8.012;2024-03-29T12:48:01;119.05;;;15.00;;
76373;SDS011;65197;50.164;8.012;2024-03-29T12:50:33;17.17;;;7.88;;
76373;SDS011;65197;50.164;8.012;2024-03-29T12:52:59;12.77;;;6.78;;
76373;SDS011;65197;50.164;8.012;2024-03-29T12:55:27;9.50;;;5.63;;
76373;SDS011;65197;50.164;8.012;2024-03-29T12:58:00;9.15;;;5.57;;
76373;SDS011;65197;50.164;8.012;2024-03-29T13:00:27;9.77;;;5.55;;
76373;SDS011;65197;50.164;8.012;2024-03-29T13:02:53;7.38;;;4.63;;
76373;SDS011;65197;50.164;8.012;2024-03-29T13:05:18;5.32;;;4.00;;
76373;SDS011;65197;50.164;8.012;2024-03-29T13:07:44;5.85;;;4.50;;
76373;SDS011;65197;50.164;8.012;2024-03-29T13:10:09;5.78;;;4.05;;
76373;SDS011;65197;50.164;8.012;2024-03-29T13:12:41;5.07;;;2.90;;
76373;SDS011;65197;50.164;8.012;2024-03-29T13:15:15;5.43;;;3.28;;
76373;SDS011;65197;50.164;8.012;2024-03-29T13:17:45;4.95;;;3.50;;
76373;SDS011;65197;50.164;8.012;2024-03-29T13:20:12;4.15;;;2.70;;
76373;SDS011;65197;50.164;8.012;2024-03-29T13:22:40;5.57;;;3.40;;
76373;SDS011;65197;50.164;8.012;2024-03-29T13:25:08;6.95;;;3.35;;
76373;SDS011;65197;50.164;8.012;2024-03-29T13:27:36;4.28;;;2.80;;
76373;SDS011;65197;50.164;8.012;2024-03-29T13:30:05;4.15;;;2.80;;
76373;SDS011;65197;50.164;8.012;2024-03-29T13:32:35;4.53;;;3.20;;
76373;SDS011;65197;50.164;8.012;2024-03-29T13:35:00;3.90;;;3.38;;
76373;SDS011;65197;50.164;8.012;2024-03-29T13:37:26;3.95;;;2.58;;
76373;SDS011;65197;50.164;8.012;2024-03-29T13:39:52;4.45;;;2.67;;
76373;SDS011;65197;50.164;8.012;2024-03-29T13:42:20;4.43;;;3.10;;
76373;SDS011;65197;50.164;8.012;2024-03-29T13:44:46;4.15;;;2.63;;
76373;SDS011;65197;50.164;8.012;2024-03-29T13:47:14;3.85;;;2.47;;
76373;SDS011;65197;50.164;8.012;2024-03-29T13:49:41;11.75;;;9.35;;
76373;SDS011;65197;50.164;8.012;2024-03-29T13:52:11;10.98;;;7.72;;
76373;SDS011;65197;50.164;8.012;2024-03-29T13:54:37;3.85;;;2.78;;
76373;SDS011;65197;50.164;8.012;2024-03-29T13:57:03;6.97;;;4.25;;
76373;SDS011;65197;50.164;8.012;2024-03-29T13:59:29;4.47;;;3.00;;
76373;SDS011;65197;50.164;8.012;2024-03-29T14:01:55;4.72;;;3.03;;
76373;SDS011;65197;50.164;8.012;2024-03-29T14:04:21;3.90;;;2.53;;
76373;SDS011;65197;50.164;8.012;2024-03-29T14:06:47;4.50;;;2.65;;
76373;SDS011;65197;50.164;8.012;2024-03-29T14:09:14;3.80;;;2.45;;
76373;SDS011;65197;50.164;8.012;2024-03-29T14:11:39;3.83;;;2.40;;
76373;SDS011;65197;50.164;8.012;2024-03-29T14:14:05;9.93;;;5.63;;
76373;SDS011;65197;50.164;8.012;2024-03-29T14:16:33;8.20;;;5.70;;
76373;SDS011;65197;50.164;8.012;2024-03-29T14:18:58;2.75;;;2.00;;
76373;SDS011;65197;50.164;8.012;2024-03-29T14:21:24;6.22;;;4.63;;
76373;SDS011;65197;50.164;8.012;2024-03-29T14:23:49;4.40;;;3.58;;
76373;SDS011;65197;50.164;8.012;2024-03-29T14:26:14;2.80;;;2.05;;
76373;SDS011;65197;50.164;8.012;2024-03-29T14:28:40;3.25;;;2.30;;
76373;SDS011;65197;50.164;8.012;2024-03-29T14:31:05;3.03;;;2.40;;
76373;SDS011;65197;50.164;8.012;2024-03-29T14:33:31;3.03;;;2.30;;
76373;SDS011;65197;50.164;8.012;2024-03-29T14:35:56;4.82;;;3.28;;
76373;SDS011;65197;50.164;8.012;2024-03-29T14:38:23;4.88;;;3.80;;
76373;SDS011;65197;50.164;8.012;2024-03-29T14:40:48;4.35;;;3.45;;
76373;SDS011;65197;50.164;8.012;2024-03-29T14:43:14;6.32;;;3.80;;
76373;SDS011;65197;50.164;8.012;2024-03-29T14:45:40;5.72;;;4.25;;
76373;SDS011;65197;50.164;8.012;2024-03-29T14:48:07;5.80;;;4.75;;